Аэропорт: Днепропетровск. Днепропетровск

ICAO: UKDD

METAR:
2018/07/16 19:30
UKDD 161930Z 27003MPS 9999 SCT033CB 18/17 Q1002 R26/210158 NOSIG
METAR:
2018/07/16 18:15
TAF UKDD 161705Z 1618/1718 28003MPS 9999 SCT025CB BKN030 TX28/1712Z TN18/1702Z 
      TEMPO 1618/1621 VRB07G12MPS 2100 -TSRA BKN020CB 
      TEMPO 1706/1718 VRB09G14MPS 3100 -TSRA SCT007 BKN020CB